Latest Weather Observations for Lajamanu

IDD60801

Issued at 9:05 pm CST Tuesday 2 September 2014 (issued every 30 minutes, with the page automatically refreshed every 10 minutes)

About weather observations | Map of weather stations | Latest weather observations for NT | Other Formats
Station Details ID: 014829 Name: LAJAMANU AIRPORT Lat: -18.33 Lon: 130.64 Height: 315.6 m
Data from the previous 72 hours. | See also: Recent months at Lajamanu
Date/Time
CST
Temp
°C
App
Temp
°C
Dew
Point
Rel
Hum
%
Delta-T
°C
Wind Press
QNH
hPa
Press
MSL
hPa
Rain
since 9 am
mm
Dir
 
Spd
km/h
Gust
km/h
Spd
kts
Gust
kts
02/09:00pm 20.4 16.4 -2.0 22 9.7 ESE 9 11 5 6 1017.4 1015.7 0.0
02/08:30pm 21.3 17.2 -3.2 19 10.4 ESE 9 11 5 6 1017.1 1015.3 0.0
02/08:00pm 22.1 17.9 -4.1 17 11.1 ESE 9 11 5 6 1016.8 1015.0 0.0
02/07:30pm 23.9 19.6 -5.2 14 12.2 ESE 9 11 5 6 1016.5 1014.7 0.0
02/07:00pm 26.2 21.8 -5.4 12 13.5 ESE 9 11 5 6 1015.9 1014.2 0.0
02/06:30pm 29.5 23.5 -6.7 9 15.5 ESE 17 22 9 12 1015.8 1014.1 0.0
02/06:00pm 31.5 25.1 -6.7 8 16.7 ESE 19 24 10 13 1015.6 1013.9 0.0
02/05:30pm 32.6 26.1 -5.9 8 17.2 ESE 20 28 11 15 1015.3 1013.6 0.0
02/05:00pm 33.0 26.0 -7.3 7 17.6 SE 22 32 12 17 1015.0 1013.3 0.0
02/04:30pm 33.4 26.8 -7.0 7 17.8 ESE 20 30 11 16 1014.9 1013.2 0.0
02/04:00pm 33.9 27.3 -6.7 7 18.1 E 20 30 11 16 1015.0 1013.3 0.0
02/03:30pm 33.6 26.6 -6.9 7 17.9 E 22 33 12 18 1015.2 1013.5 0.0
02/03:00pm 33.6 25.9 -6.9 7 17.9 SE 26 32 14 17 1015.5 1013.8 0.0
02/02:30pm 33.1 25.3 -7.3 7 17.7 SE 26 35 14 19 1016.0 1014.3 0.0
02/02:00pm 33.8 27.4 -5.0 8 17.8 E 20 33 11 18 1016.4 1014.6 0.0
02/01:30pm 33.2 26.0 -5.5 8 17.5 SE 24 32 13 17 1016.8 1015.0 0.0
02/01:00pm 32.4 25.1 -6.0 8 17.1 SE 24 35 13 19 1017.2 1015.4 0.0
02/12:30pm 31.4 25.2 -5.2 9 16.4 ESE 19 30 10 16 1017.5 1015.8 0.0
02/12:00pm 30.7 24.8 -5.8 9 16.1 ESE 17 24 9 13 1018.0 1016.3 0.0
02/11:30am 29.6 22.8 -5.2 10 15.3 SE 22 30 12 16 1018.4 1016.7 0.0
02/11:00am 29.2 22.9 -4.3 11 14.9 ESE 20 28 11 15 1019.1 1017.4 0.0
02/10:30am 28.0 21.7 -4.0 12 14.2 SE 20 33 11 18 1019.5 1017.7 0.0
02/10:00am 27.8 22.4 -4.2 12 14.2 E 15 20 8 11 1018.9 1017.2 0.0
02/09:30am 25.2 20.6 -4.2 14 12.7 ESE 11 15 6 8 1018.9 1017.2 0.0
02/09:00am 22.8 18.3 -3.5 17 11.3 ESE 11 13 6 7 1018.7 1017.0 0.0
02/08:30am 20.1 17.3 -2.9 21 9.7 ESE 2 6 1 3 1018.6 1016.9 0.0
02/08:00am 16.0 13.7 -2.0 29 7.5 CALM 0 4 0 2 1018.4 1016.7 0.0
02/07:30am 12.2 8.6 -2.0 37 5.7 NW 7 9 4 5 1018.0 1016.3 0.0
02/07:00am 9.7 6.0 -2.9 41 4.8 WNW 7 9 4 5 1017.7 1016.0 0.0
02/06:30am 10.6 6.5 -3.1 38 5.2 NW 9 11 5 6 1017.4 1015.7 0.0
02/06:00am 11.1 7.0 -3.0 37 5.4 NNW 9 11 5 6 1017.2 1015.4 0.0
02/05:30am 10.9 7.2 -2.8 38 5.3 NNW 7 9 4 5 1016.9 1015.1 0.0
02/05:00am 11.2 7.5 -3.3 36 5.6 NW 7 9 4 5 1016.8 1015.0 0.0
02/04:30am 11.7 7.6 -3.2 35 5.8 NW 9 11 5 6 1016.7 1014.9 0.0
02/04:00am 11.9 7.8 -3.1 35 5.8 WNW 9 9 5 5 1016.6 1014.8 0.0
02/03:30am 10.8 7.2 -3.3 37 5.4 NW 6 9 3 5 1016.6 1014.8 0.0
02/03:00am 12.3 8.6 -3.1 34 6.0 NW 7 9 4 5 1016.7 1014.9 0.0
02/02:30am 12.8 9.3 -3.0 33 6.2 NNW 6 7 3 4 1016.9 1015.1 0.0
02/02:00am 12.4 9.5 -4.2 31 6.3 W 2 6 1 3 1017.1 1015.3 0.0
02/01:30am 12.2 8.5 -4.4 31 6.3 S 6 7 3 4 1017.3 1015.5 0.0
02/01:00am 13.6 10.7 -4.1 29 6.9 S 2 6 1 3 1017.4 1015.7 0.0
02/12:30am 14.1 10.9 -3.6 29 7.0 S 4 6 2 3 1017.4 1015.7 0.0
02/12:00am 14.4 10.8 -3.9 28 7.2 S 6 7 3 4 1017.4 1015.7 0.0
 
Date/Time
CST
Temp
°C
App
Temp
°C
Dew
Point
Rel
Hum
%
Delta-T
°C
Wind Press
QNH
hPa
Press
MSL
hPa
Rain
since 9 am
mm
Dir
 
Spd
km/h
Gust
km/h
Spd
kts
Gust
kts
01/11:30pm 15.5 11.8 -4.4 25 7.8 S 6 9 3 5 1017.3 1015.5 0.0
01/11:00pm 17.1 13.4 -4.2 23 8.5 S 6 9 3 5 1017.5 1015.8 0.0
01/10:30pm 18.8 15.1 -2.7 23 9.0 S 7 11 4 6 1017.4 1015.7 0.0
01/10:00pm 17.0 13.3 -3.1 25 8.2 SSE 7 9 4 5 1017.2 1015.4 0.0
01/09:30pm 17.6 14.1 -2.6 25 8.4 S 6 9 3 5 1017.0 1015.2 0.0
01/09:00pm 20.3 16.4 -4.8 18 10.3 ESE 7 9 4 5 1016.8 1015.0 0.0
01/08:30pm 20.3 16.5 -3.4 20 10.0 SE 7 9 4 5 1016.4 1014.6 0.0
01/08:00pm 19.6 15.8 -3.9 20 9.7 SE 7 7 4 4 1016.2 1014.4 0.0
01/07:30pm 21.4 17.8 -3.9 18 10.6 SE 6 7 3 4 1015.7 1014.0 0.0
01/07:00pm 23.1 19.2 -4.9 15 11.7 SSE 7 7 4 4 1015.2 1013.5 0.0
01/06:30pm 28.0 24.2 -5.2 11 14.5 SE 6 7 3 4 1014.9 1013.2 0.0
01/06:00pm 30.9 26.5 -5.6 9 16.2 SE 9 13 5 7 1014.6 1012.9 0.0
01/05:30pm 31.9 26.7 -6.4 8 16.9 SE 13 17 7 9 1014.3 1012.5 0.0
01/05:00pm 32.3 27.1 -6.1 8 17.1 SE 13 20 7 11 1014.1 1012.3 0.0
01/04:30pm 32.6 26.5 -7.6 7 17.5 SE 17 24 9 13 1014.0 1012.2 0.0
01/04:00pm 31.8 26.8 -8.2 7 17.1 SSE 11 17 6 9 1014.1 1012.3 0.0
01/03:30pm 33.4 28.3 -5.3 8 17.6 ESE 13 20 7 11 1014.2 1012.4 0.0
01/03:00pm 32.4 27.8 -7.8 7 17.4 SE 9 22 5 12 1014.6 1012.9 0.0
01/02:30pm 32.8 27.6 -5.7 8 17.3 E 13 20 7 11 1015.2 1013.5 0.0
01/02:00pm 32.4 28.0 -6.0 8 17.1 NE 9 20 5 11 1015.5 1013.8 0.0
01/01:30pm 31.9 27.1 -6.4 8 16.9 ESE 11 20 6 11 1016.0 1014.3 0.0
01/01:00pm 31.7 26.1 -6.6 8 16.8 E 15 26 8 14 1016.9 1015.1 0.0
01/12:30pm 30.9 25.4 -5.6 9 16.1 E 15 24 8 13 1017.4 1015.7 0.0
01/12:00pm 30.4 24.1 -6.0 9 15.9 SSE 19 24 10 13 1017.6 1015.9 0.0
01/11:30am 30.5 24.6 -5.9 9 16.0 SE 17 24 9 13 1018.0 1016.3 0.0
01/11:00am 29.4 24.8 -4.1 11 15.1 SE 11 20 6 11 1018.4 1016.7 0.0
01/10:30am 28.1 23.5 -3.9 12 14.2 ESE 11 15 6 8 1018.7 1017.0 0.0
01/10:00am 26.5 22.3 -4.1 13 13.4 ESE 9 11 5 6 1018.9 1017.2 0.0
01/09:30am 24.6 20.4 -3.7 15 12.3 ESE 9 13 5 7 1018.8 1017.1 0.0
01/09:00am 20.6 17.0 -1.8 22 9.7 SE 7 9 4 5 1018.6 1017.6 0.0
01/08:30am 16.2 13.6 -1.8 29 7.5 S 2 6 1 3 1018.3 1017.2 0.0
01/08:00am 13.1 10.4 -2.4 34 6.2 WNW 2 6 1 3 1018.1 1017.0 0.0
01/07:30am 10.3 6.4 -1.4 44 4.6 NNW 9 11 5 6 1017.8 1016.7 0.0
01/07:00am 9.0 4.6 -2.3 45 4.3 NNW 11 11 6 6 1017.4 1016.3 0.0
01/06:30am 9.4 5.7 -2.5 43 4.6 WNW 7 9 4 5 1017.0 1015.9 0.0
01/06:00am 9.3 5.6 -2.6 43 4.5 NW 7 9 4 5 1016.5 1015.4 0.0
01/05:30am 9.6 5.6 -2.0 44 4.5 NW 9 11 5 6 1016.3 1015.2 0.0
01/05:00am 9.3 5.3 -2.3 44 4.5 NNW 9 11 5 6 1015.8 1014.8 0.0
01/04:30am 10.2 6.5 -2.8 40 5.0 NW 7 9 4 5 1015.6 1014.6 0.0
01/04:00am 9.9 7.2 -2.7 41 4.8 W 2 6 1 3 1015.2 1014.1 0.0
01/03:30am 9.5 5.9 -3.4 40 4.8 W 6 7 3 4 1015.1 1014.0 0.0
01/03:00am 10.8 7.3 -2.6 39 5.2 WNW 6 7 3 4 1015.0 1013.9 0.0
01/02:30am 9.7 6.2 -3.2 40 4.9 W 6 7 3 4 1015.2 1014.1 0.0
01/02:00am 10.3 6.7 -3.4 38 5.2 W 6 7 3 4 1015.3 1014.2 0.0
01/01:30am 9.3 5.6 -4.6 37 5.1 NW 6 7 3 4 1015.5 1014.4 0.0
01/01:00am 10.8 6.6 -4.0 35 5.6 N 9 11 5 6 1015.7 1014.7 0.0
01/12:30am 11.8 7.9 -4.3 32 6.1 N 7 9 4 5 1015.7 1014.7 0.0
01/12:00am 15.0 10.9 -3.3 28 7.3 NNE 9 15 5 8 1015.8 1014.8 0.0
 
Date/Time
CST
Temp
°C
App
Temp
°C
Dew
Point
Rel
Hum
%
Delta-T
°C
Wind Press
QNH
hPa
Press
MSL
hPa
Rain
since 9 am
mm
Dir
 
Spd
km/h
Gust
km/h
Spd
kts
Gust
kts
31/11:30pm 12.8 9.2 -3.9 31 6.4 SSW 6 7 3 4 1015.9 1014.9 0.0
31/11:00pm 13.8 11.4 -3.0 31 6.7 CALM 0 0 0 0 1015.9 1014.9 0.0
31/10:30pm 13.6 11.1 -4.1 29 6.9 CALM 0 0 0 0 1016.0 1015.0 0.0
31/10:00pm 14.9 12.4 -4.4 26 7.5 CALM 0 0 0 0 1016.0 1015.0 0.0
31/09:30pm 16.2 13.7 -4.4 24 8.1 CALM 0 0 0 0 1015.9 1014.9 0.0
31/09:00pm 16.1 12.4 -4.4 24 8.1 SSE 6 7 3 4 1015.8 1014.8 0.0
31/08:30pm 17.3 13.7 -4.0 23 8.6 SE 6 13 3 7 1015.6 1014.6 0.0
31/08:00pm 19.2 15.0 -8.0 15 10.3 E 7 9 4 5 1015.2 1014.1 0.0
31/07:30pm 20.6 16.4 -7.8 14 11.0 E 7 9 4 5 1014.8 1013.7 0.0
31/07:00pm 22.4 18.4 -7.3 13 11.8 E 6 7 3 4 1014.5 1013.4 0.0
31/06:30pm 26.6 22.7 -6.2 11 13.9 ESE 6 9 3 5 1014.3 1013.2 0.0
31/06:00pm 29.1 24.6 -7.0 9 15.4 ESE 9 15 5 8 1014.1 1013.0 0.0
31/05:30pm 29.9 24.5 -7.9 8 16.0 E 13 20 7 11 1014.0 1012.9 0.0
31/05:00pm 30.2 24.5 -7.7 8 16.1 E 15 20 8 11 1013.9 1012.8 0.0
31/04:30pm 30.6 24.1 -7.4 8 16.3 E 19 28 10 15 1013.8 1012.7 0.0
31/04:00pm 31.3 26.0 -6.8 8 16.6 E 13 26 7 14 1013.8 1012.7 0.0
31/03:30pm 30.8 26.3 -7.2 8 16.4 SE 9 19 5 10 1013.9 1012.8 0.0
31/03:00pm 30.5 24.0 -7.4 8 16.2 E 19 26 10 14 1014.3 1013.2 0.0
31/02:30pm 31.0 25.7 -7.1 8 16.5 E 13 17 7 9 1014.7 1013.6 0.0
31/02:00pm 30.9 24.9 -7.1 8 16.4 E 17 30 9 16 1015.2 1014.1 0.0
31/01:30pm 30.7 23.4 -5.8 9 16.1 ESE 24 32 13 17 1015.6 1014.6 0.0
31/01:00pm 30.0 22.3 -6.3 9 15.8 E 26 35 14 19 1016.4 1015.3 0.0
31/12:30pm 29.9 23.4 -6.4 9 15.7 ESE 20 30 11 16 1017.0 1015.9 0.0
31/12:00pm 29.5 23.9 -6.7 9 15.5 E 15 24 8 13 1017.5 1016.4 0.0
31/11:30am 28.8 22.9 -5.8 10 15.0 E 17 26 9 14 1017.9 1016.8 0.0
31/11:00am 27.8 21.9 -5.3 11 14.4 E 17 26 9 14 1018.4 1017.4 0.0
31/10:30am 26.4 21.4 -4.2 13 13.4 ESE 13 19 7 10 1018.8 1017.8 0.0
31/10:00am 24.6 19.6 -4.6 14 12.5 ESE 13 20 7 11 1018.9 1017.9 0.0
31/09:30am 22.2 17.2 -4.0 17 11.1 ESE 13 17 7 9 1018.8 1017.8 0.0
31/09:00am 19.8 16.2 -1.9 23 9.3 SE 7 9 4 5 1018.6 1017.6 0.0
31/08:30am 14.7 12.6 -0.6 35 6.5 CALM 0 0 0 0 1018.2 1017.1 0.0
31/08:00am 11.2 9.0 -1.9 40 5.2 CALM 0 0 0 0 1017.9 1016.8 0.0
31/07:30am 8.2 4.9 -1.1 52 3.6 W 6 7 3 4 1017.6 1016.5 0.0
31/07:00am 6.5 3.1 -2.4 53 3.3 WNW 6 7 3 4 1017.4 1016.3 0.0
31/06:30am 8.3 4.8 -1.2 51 3.7 NW 7 9 4 5 1017.1 1016.0 0.0
31/06:00am 6.3 4.1 -1.6 57 3.0 CALM 0 0 0 0 1016.9 1015.8 0.0
31/05:30am 6.4 4.1 -2.0 55 3.1 CALM 0 0 0 0 1016.7 1015.6 0.0
31/05:00am 7.0 4.7 -2.7 50 3.6 CALM 0 0 0 0 1016.5 1015.4 0.0
31/04:30am 7.6 5.2 -3.0 47 3.9 CALM 0 0 0 0 1016.4 1015.3 0.0
31/04:00am 7.8 5.3 -4.3 42 4.4 CALM 0 0 0 0 1016.3 1015.2 0.0
31/03:30am 8.7 6.1 -4.5 39 4.8 CALM 0 0 0 0 1016.3 1015.2 0.0
31/03:00am 9.2 6.3 -4.0 39 4.9 SSE 2 7 1 4 1016.4 1015.3 0.0
31/02:30am 10.3 6.6 -4.1 36 5.4 SSE 6 7 3 4 1016.5 1015.4 0.0
31/02:00am 10.2 7.3 -3.8 37 5.3 SSE 2 6 1 3 1016.7 1015.6 0.0
31/01:30am 12.1 8.4 -4.5 31 6.3 ESE 6 7 3 4 1016.8 1015.7 0.0
31/01:00am 13.3 9.1 -3.9 30 6.7 ESE 9 11 5 6 1016.9 1015.8 0.0
31/12:30am 13.4 9.6 -3.4 31 6.6 SE 7 9 4 5 1016.9 1015.8 0.0
31/12:00am 11.9 8.1 -3.4 34 5.9 SE 7 9 4 5 1017.0 1015.9 0.0
 
Date/Time
CST
Temp
°C
App
Temp
°C
Dew
Point
Rel
Hum
%
Delta-T
°C
Wind Press
QNH
hPa
Press
MSL
hPa
Rain
since 9 am
mm
Dir
 
Spd
km/h
Gust
km/h
Spd
kts
Gust
kts
30/11:30pm 12.7 8.9 -3.5 32 6.3 SE 7 9 4 5 1017.2 1016.1 0.0
30/11:00pm 13.2 9.6 -4.0 30 6.7 SE 6 7 3 4 1017.3 1016.2 0.0
30/10:30pm 15.1 11.0 -3.3 28 7.4 SE 9 11 5 6 1017.3 1016.2 0.0
30/10:00pm 16.5 12.8 -3.0 26 8.0 ESE 7 9 4 5 1017.3 1016.2 0.0
30/09:30pm 15.4 11.6 -3.5 27 7.6 E 7 9 4 5 1017.3 1016.2 0.0

Other Formats:

Comma delimited format used in spreadsheet applications
http://www.bom.gov.au/fwo/IDD60801/IDD60801.94231.axf

JavaScript Object Notation format (JSON) in row-major order
http://www.bom.gov.au/fwo/IDD60801/IDD60801.94231.json